sensor_id;sensor_type;location;lat;lon;timestamp;temperature;humidity
46676;DHT22;32412;51.478;5.694;2023-04-25T00:01:20;7.20;99.90
46676;DHT22;32412;51.478;5.694;2023-04-25T00:03:47;7.20;99.90
46676;DHT22;32412;51.478;5.694;2023-04-25T00:06:13;7.20;99.90
46676;DHT22;32412;51.478;5.694;2023-04-25T00:08:40;7.10;99.90
46676;DHT22;32412;51.478;5.694;2023-04-25T00:11:05;7.20;99.90
46676;DHT22;32412;51.478;5.694;2023-04-25T00:13:32;7.10;99.90
46676;DHT22;32412;51.478;5.694;2023-04-25T00:15:58;7.20;99.90
46676;DHT22;32412;51.478;5.694;2023-04-25T00:18:25;7.20;99.90
46676;DHT22;32412;51.478;5.694;2023-04-25T00:20:54;7.20;99.90
46676;DHT22;32412;51.478;5.694;2023-04-25T00:23:20;7.20;99.90
46676;DHT22;32412;51.478;5.694;2023-04-25T00:25:50;7.20;99.90
46676;DHT22;32412;51.478;5.694;2023-04-25T00:28:16;7.20;99.90
46676;DHT22;32412;51.478;5.694;2023-04-25T00:30:42;7.20;99.90
46676;DHT22;32412;51.478;5.694;2023-04-25T00:33:09;7.10;99.90
46676;DHT22;32412;51.478;5.694;2023-04-25T00:46:12;7.00;99.90
46676;DHT22;32412;51.478;5.694;2023-04-25T00:49:00;7.00;99.90
46676;DHT22;32412;51.478;5.694;2023-04-25T00:51:54;7.00;99.90
46676;DHT22;32412;51.478;5.694;2023-04-25T00:57:48;6.90;99.90
46676;DHT22;32412;51.478;5.694;2023-04-25T01:14:10;6.50;99.90
46676;DHT22;32412;51.478;5.694;2023-04-25T01:20:05;6.50;99.90
46676;DHT22;32412;51.478;5.694;2023-04-25T01:35:15;6.30;99.90
46676;DHT22;32412;51.478;5.694;2023-04-25T01:37:48;6.20;99.90
46676;DHT22;32412;51.478;5.694;2023-04-25T01:43:48;6.10;99.90
46676;DHT22;32412;51.478;5.694;2023-04-25T02:05:16;6.00;99.90
46676;DHT22;32412;51.478;5.694;2023-04-25T02:07:41;6.10;99.90
46676;DHT22;32412;51.478;5.694;2023-04-25T02:10:08;6.10;99.90
46676;DHT22;32412;51.478;5.694;2023-04-25T02:12:34;6.10;99.90
46676;DHT22;32412;51.478;5.694;2023-04-25T02:15:01;6.10;99.90
46676;DHT22;32412;51.478;5.694;2023-04-25T02:17:26;6.20;99.90
46676;DHT22;32412;51.478;5.694;2023-04-25T02:19:52;6.20;99.90
46676;DHT22;32412;51.478;5.694;2023-04-25T02:22:18;6.20;99.90
46676;DHT22;32412;51.478;5.694;2023-04-25T02:24:44;6.20;99.90
46676;DHT22;32412;51.478;5.694;2023-04-25T02:27:09;6.20;99.90
46676;DHT22;32412;51.478;5.694;2023-04-25T02:29:35;6.20;99.90
46676;DHT22;32412;51.478;5.694;2023-04-25T02:32:13;6.10;99.90
46676;DHT22;32412;51.478;5.694;2023-04-25T02:38:02;5.90;99.90
46676;DHT22;32412;51.478;5.694;2023-04-25T02:40:57;5.80;99.90
46676;DHT22;32412;51.478;5.694;2023-04-25T02:53:29;5.60;99.90
46676;DHT22;32412;51.478;5.694;2023-04-25T02:59:37;5.50;99.90
46676;DHT22;32412;51.478;5.694;2023-04-25T03:02:24;5.50;99.90
46676;DHT22;32412;51.478;5.694;2023-04-25T03:05:02;5.40;99.90
46676;DHT22;32412;51.478;5.694;2023-04-25T03:39:44;4.90;99.90
46676;DHT22;32412;51.478;5.694;2023-04-25T04:03:58;5.10;99.90
46676;DHT22;32412;51.478;5.694;2023-04-25T04:06:29;5.20;99.90
46676;DHT22;32412;51.478;5.694;2023-04-25T04:08:55;5.20;99.90
46676;DHT22;32412;51.478;5.694;2023-04-25T04:11:22;5.30;99.90
46676;DHT22;32412;51.478;5.694;2023-04-25T04:13:47;5.30;99.90
46676;DHT22;32412;51.478;5.694;2023-04-25T04:16:13;5.30;99.90
46676;DHT22;32412;51.478;5.694;2023-04-25T04:18:41;5.40;99.90
46676;DHT22;32412;51.478;5.694;2023-04-25T04:21:07;5.40;99.90
46676;DHT22;32412;51.478;5.694;2023-04-25T04:23:33;5.40;99.90
46676;DHT22;32412;51.478;5.694;2023-04-25T04:25:59;5.50;99.90
46676;DHT22;32412;51.478;5.694;2023-04-25T04:28:29;5.50;99.90
46676;DHT22;32412;51.478;5.694;2023-04-25T04:30:55;5.50;99.90
46676;DHT22;32412;51.478;5.694;2023-04-25T04:33:21;5.60;99.90
46676;DHT22;32412;51.478;5.694;2023-04-25T04:35:49;5.50;99.90
46676;DHT22;32412;51.478;5.694;2023-04-25T04:38:16;5.60;99.90
46676;DHT22;32412;51.478;5.694;2023-04-25T04:40:44;5.60;99.90
46676;DHT22;32412;51.478;5.694;2023-04-25T04:43:12;5.70;99.90
46676;DHT22;32412;51.478;5.694;2023-04-25T04:45:38;5.70;99.90
46676;DHT22;32412;51.478;5.694;2023-04-25T04:48:08;5.80;99.90
46676;DHT22;32412;51.478;5.694;2023-04-25T04:50:34;5.80;99.90
46676;DHT22;32412;51.478;5.694;2023-04-25T04:53:01;5.90;99.90
46676;DHT22;32412;51.478;5.694;2023-04-25T04:55:27;5.90;99.90
46676;DHT22;32412;51.478;5.694;2023-04-25T04:57:52;5.90;99.90
46676;DHT22;32412;51.478;5.694;2023-04-25T05:00:18;6.00;99.90
46676;DHT22;32412;51.478;5.694;2023-04-25T05:02:46;6.00;99.90
46676;DHT22;32412;51.478;5.694;2023-04-25T05:05:11;6.10;99.90
46676;DHT22;32412;51.478;5.694;2023-04-25T05:07:37;6.10;99.90
46676;DHT22;32412;51.478;5.694;2023-04-25T05:10:03;6.20;99.90
46676;DHT22;32412;51.478;5.694;2023-04-25T05:12:31;6.20;99.90
46676;DHT22;32412;51.478;5.694;2023-04-25T05:14:57;6.20;99.90
46676;DHT22;32412;51.478;5.694;2023-04-25T05:17:25;6.20;99.90
46676;DHT22;32412;51.478;5.694;2023-04-25T05:19:51;6.20;99.90
46676;DHT22;32412;51.478;5.694;2023-04-25T05:28:43;6.40;99.90
46676;DHT22;32412;51.478;5.694;2023-04-25T05:31:11;6.40;99.90
46676;DHT22;32412;51.478;5.694;2023-04-25T05:33:38;6.40;99.90
46676;DHT22;32412;51.478;5.694;2023-04-25T05:36:06;6.30;99.90
46676;DHT22;32412;51.478;5.694;2023-04-25T05:38:32;6.30;99.90
46676;DHT22;32412;51.478;5.694;2023-04-25T05:40:58;6.40;99.90
46676;DHT22;32412;51.478;5.694;2023-04-25T05:43:23;6.40;99.90
46676;DHT22;32412;51.478;5.694;2023-04-25T05:45:49;6.40;99.90
46676;DHT22;32412;51.478;5.694;2023-04-25T05:48:15;6.50;99.90
46676;DHT22;32412;51.478;5.694;2023-04-25T05:50:41;6.50;99.90
46676;DHT22;32412;51.478;5.694;2023-04-25T05:53:07;6.60;99.90
46676;DHT22;32412;51.478;5.694;2023-04-25T05:55:32;6.70;99.90
46676;DHT22;32412;51.478;5.694;2023-04-25T05:57:58;6.80;99.90
46676;DHT22;32412;51.478;5.694;2023-04-25T06:00:24;6.80;99.90
46676;DHT22;32412;51.478;5.694;2023-04-25T06:02:50;6.80;99.90
46676;DHT22;32412;51.478;5.694;2023-04-25T06:05:16;6.90;99.90
46676;DHT22;32412;51.478;5.694;2023-04-25T06:07:41;7.00;99.90
46676;DHT22;32412;51.478;5.694;2023-04-25T06:10:08;7.00;99.90
46676;DHT22;32412;51.478;5.694;2023-04-25T06:12:33;7.10;99.90
46676;DHT22;32412;51.478;5.694;2023-04-25T06:15:00;7.10;99.90
46676;DHT22;32412;51.478;5.694;2023-04-25T06:17:26;7.20;99.90
46676;DHT22;32412;51.478;5.694;2023-04-25T06:19:52;7.30;99.90
46676;DHT22;32412;51.478;5.694;2023-04-25T06:22:17;7.30;99.90
46676;DHT22;32412;51.478;5.694;2023-04-25T06:24:43;7.40;99.90
46676;DHT22;32412;51.478;5.694;2023-04-25T06:27:09;7.50;99.90
46676;DHT22;32412;51.478;5.694;2023-04-25T06:29:37;7.50;99.90
46676;DHT22;32412;51.478;5.694;2023-04-25T06:32:03;7.70;99.90
46676;DHT22;32412;51.478;5.694;2023-04-25T06:34:30;8.00;99.90
46676;DHT22;32412;51.478;5.694;2023-04-25T06:37:06;8.00;99.90
46676;DHT22;32412;51.478;5.694;2023-04-25T06:43:35;8.40;99.90
46676;DHT22;32412;51.478;5.694;2023-04-25T06:46:28;8.60;99.90
46676;DHT22;32412;51.478;5.694;2023-04-25T06:49:02;8.50;99.90
46676;DHT22;32412;51.478;5.694;2023-04-25T06:54:56;8.50;99.90
46676;DHT22;32412;51.478;5.694;2023-04-25T06:57:22;8.50;99.90
46676;DHT22;32412;51.478;5.694;2023-04-25T06:59:47;8.30;99.90
46676;DHT22;32412;51.478;5.694;2023-04-25T07:02:13;8.00;99.90
46676;DHT22;32412;51.478;5.694;2023-04-25T07:04:39;7.90;99.90
46676;DHT22;32412;51.478;5.694;2023-04-25T07:07:04;7.70;99.90
46676;DHT22;32412;51.478;5.694;2023-04-25T07:09:30;7.80;99.90
46676;DHT22;32412;51.478;5.694;2023-04-25T07:11:59;7.90;99.90
46676;DHT22;32412;51.478;5.694;2023-04-25T07:14:27;8.10;99.90
46676;DHT22;32412;51.478;5.694;2023-04-25T07:16:53;8.30;99.90
46676;DHT22;32412;51.478;5.694;2023-04-25T07:19:21;8.30;99.90
46676;DHT22;32412;51.478;5.694;2023-04-25T07:21:46;8.40;99.90
46676;DHT22;32412;51.478;5.694;2023-04-25T07:24:14;8.40;99.90
46676;DHT22;32412;51.478;5.694;2023-04-25T07:26:40;8.40;99.90
46676;DHT22;32412;51.478;5.694;2023-04-25T07:29:06;8.50;99.90
46676;DHT22;32412;51.478;5.694;2023-04-25T07:31:32;8.60;99.90
46676;DHT22;32412;51.478;5.694;2023-04-25T07:33:57;8.70;99.90
46676;DHT22;32412;51.478;5.694;2023-04-25T07:36:23;8.70;99.90
46676;DHT22;32412;51.478;5.694;2023-04-25T07:38:49;8.80;99.90
46676;DHT22;32412;51.478;5.694;2023-04-25T07:41:18;8.70;99.90
46676;DHT22;32412;51.478;5.694;2023-04-25T07:43:44;8.50;99.90
46676;DHT22;32412;51.478;5.694;2023-04-25T07:46:22;8.30;99.90
46676;DHT22;32412;51.478;5.694;2023-04-25T07:59:06;9.00;99.90
46676;DHT22;32412;51.478;5.694;2023-04-25T08:11:00;9.20;99.90
46676;DHT22;32412;51.478;5.694;2023-04-25T08:13:37;9.50;99.90
46676;DHT22;32412;51.478;5.694;2023-04-25T08:16:16;9.90;99.90
46676;DHT22;32412;51.478;5.694;2023-04-25T08:18:54;10.00;99.90
46676;DHT22;32412;51.478;5.694;2023-04-25T08:28:05;10.50;99.90
46676;DHT22;32412;51.478;5.694;2023-04-25T08:30:36;10.90;99.90
46676;DHT22;32412;51.478;5.694;2023-04-25T08:36:35;11.00;99.90
46676;DHT22;32412;51.478;5.694;2023-04-25T08:39:05;10.70;99.90
46676;DHT22;32412;51.478;5.694;2023-04-25T08:41:36;10.40;99.90
46676;DHT22;32412;51.478;5.694;2023-04-25T08:44:03;10.40;99.90
46676;DHT22;32412;51.478;5.694;2023-04-25T08:46:30;10.40;99.90
46676;DHT22;32412;51.478;5.694;2023-04-25T08:49:00;10.30;99.90
46676;DHT22;32412;51.478;5.694;2023-04-25T08:51:27;10.60;99.90
46676;DHT22;32412;51.478;5.694;2023-04-25T08:54:11;10.50;99.90
46676;DHT22;32412;51.478;5.694;2023-04-25T08:56:44;10.30;99.90
46676;DHT22;32412;51.478;5.694;2023-04-25T08:59:17;10.40;99.90
46676;DHT22;32412;51.478;5.694;2023-04-25T09:01:58;10.40;99.90
46676;DHT22;32412;51.478;5.694;2023-04-25T09:04:26;10.40;99.90
46676;DHT22;32412;51.478;5.694;2023-04-25T09:07:00;10.20;99.90
46676;DHT22;32412;51.478;5.694;2023-04-25T09:09:29;10.00;99.90
46676;DHT22;32412;51.478;5.694;2023-04-25T09:11:59;9.70;99.90
46676;DHT22;32412;51.478;5.694;2023-04-25T09:17:57;10.00;99.90
46676;DHT22;32412;51.478;5.694;2023-04-25T09:24:10;10.30;99.90
46676;DHT22;32412;51.478;5.694;2023-04-25T09:26:37;10.50;99.90
46676;DHT22;32412;51.478;5.694;2023-04-25T09:29:14;11.00;99.90
46676;DHT22;32412;51.478;5.694;2023-04-25T09:31:59;11.70;99.90
46676;DHT22;32412;51.478;5.694;2023-04-25T09:38:18;12.70;99.90
46676;DHT22;32412;51.478;5.694;2023-04-25T09:40:45;12.60;99.90
46676;DHT22;32412;51.478;5.694;2023-04-25T09:43:26;13.10;99.90
46676;DHT22;32412;51.478;5.694;2023-04-25T09:45:57;13.20;99.90
46676;DHT22;32412;51.478;5.694;2023-04-25T09:48:35;13.30;99.90
46676;DHT22;32412;51.478;5.694;2023-04-25T09:53:44;12.40;99.90
46676;DHT22;32412;51.478;5.694;2023-04-25T09:56:25;12.10;99.90
46676;DHT22;32412;51.478;5.694;2023-04-25T09:59:00;11.70;99.90
46676;DHT22;32412;51.478;5.694;2023-04-25T10:01:29;11.00;99.90
46676;DHT22;32412;51.478;5.694;2023-04-25T10:04:06;10.70;99.90
46676;DHT22;32412;51.478;5.694;2023-04-25T10:06:37;10.50;99.90
46676;DHT22;32412;51.478;5.694;2023-04-25T10:09:07;10.40;99.90
46676;DHT22;32412;51.478;5.694;2023-04-25T10:11:33;10.30;99.90
46676;DHT22;32412;51.478;5.694;2023-04-25T10:14:05;9.90;99.90
46676;DHT22;32412;51.478;5.694;2023-04-25T10:16:32;9.30;99.90
46676;DHT22;32412;51.478;5.694;2023-04-25T10:18:58;8.90;99.90
46676;DHT22;32412;51.478;5.694;2023-04-25T10:21:31;8.80;99.90
46676;DHT22;32412;51.478;5.694;2023-04-25T10:23:57;8.90;99.90
46676;DHT22;32412;51.478;5.694;2023-04-25T10:26:24;9.10;99.90
46676;DHT22;32412;51.478;5.694;2023-04-25T10:29:05;9.40;99.90
46676;DHT22;32412;51.478;5.694;2023-04-25T10:32:04;10.60;99.90
46676;DHT22;32412;51.478;5.694;2023-04-25T10:35:14;12.80;99.90
46676;DHT22;32412;51.478;5.694;2023-04-25T10:38:13;13.90;99.90
46676;DHT22;32412;51.478;5.694;2023-04-25T10:44:36;14.70;96.90
46676;DHT22;32412;51.478;5.694;2023-04-25T10:47:46;16.00;95.10
46676;DHT22;32412;51.478;5.694;2023-04-25T11:00:25;17.10;92.30
46676;DHT22;32412;51.478;5.694;2023-04-25T11:06:33;16.80;92.70
46676;DHT22;32412;51.478;5.694;2023-04-25T11:12:35;16.50;93.70
46676;DHT22;32412;51.478;5.694;2023-04-25T11:25:23;14.70;95.20
46676;DHT22;32412;51.478;5.694;2023-04-25T11:27:53;12.50;99.40
46676;DHT22;32412;51.478;5.694;2023-04-25T11:30:25;11.30;99.90
46676;DHT22;32412;51.478;5.694;2023-04-25T11:52:40;8.00;99.90
46676;DHT22;32412;51.478;5.694;2023-04-25T11:55:19;8.10;99.90
46676;DHT22;32412;51.478;5.694;2023-04-25T11:57:51;8.30;99.90
46676;DHT22;32412;51.478;5.694;2023-04-25T12:00:25;8.60;99.90
46676;DHT22;32412;51.478;5.694;2023-04-25T12:02:53;8.80;99.90
46676;DHT22;32412;51.478;5.694;2023-04-25T12:05:26;9.00;99.90
46676;DHT22;32412;51.478;5.694;2023-04-25T12:07:57;9.50;99.90
46676;DHT22;32412;51.478;5.694;2023-04-25T12:10:37;10.10;99.90
46676;DHT22;32412;51.478;5.694;2023-04-25T12:13:21;10.40;99.90
46676;DHT22;32412;51.478;5.694;2023-04-25T12:16:09;11.70;99.90
46676;DHT22;32412;51.478;5.694;2023-04-25T12:18:46;13.50;99.90
46676;DHT22;32412;51.478;5.694;2023-04-25T12:23:47;14.60;99.90
46676;DHT22;32412;51.478;5.694;2023-04-25T12:26:19;14.50;99.90
46676;DHT22;32412;51.478;5.694;2023-04-25T12:28:48;13.50;99.90
46676;DHT22;32412;51.478;5.694;2023-04-25T12:31:17;14.50;99.90
46676;DHT22;32412;51.478;5.694;2023-04-25T12:33:46;15.00;99.90
46676;DHT22;32412;51.478;5.694;2023-04-25T12:36:15;15.30;97.70
46676;DHT22;32412;51.478;5.694;2023-04-25T12:39:00;15.80;98.70
46676;DHT22;32412;51.478;5.694;2023-04-25T12:41:29;16.40;95.00
46676;DHT22;32412;51.478;5.694;2023-04-25T12:50:40;16.50;96.20
46676;DHT22;32412;51.478;5.694;2023-04-25T12:53:06;16.80;95.50
46676;DHT22;32412;51.478;5.694;2023-04-25T12:55:37;15.30;95.70
46676;DHT22;32412;51.478;5.694;2023-04-25T12:58:03;13.00;94.70
46676;DHT22;32412;51.478;5.694;2023-04-25T13:00:30;12.30;95.10
46676;DHT22;32412;51.478;5.694;2023-04-25T13:02:56;11.80;96.00
46676;DHT22;32412;51.478;5.694;2023-04-25T13:05:24;11.50;95.40
46676;DHT22;32412;51.478;5.694;2023-04-25T13:07:50;11.60;97.50
46676;DHT22;32412;51.478;5.694;2023-04-25T13:10:19;12.20;97.40
46676;DHT22;32412;51.478;5.694;2023-04-25T13:12:45;12.90;95.00
46676;DHT22;32412;51.478;5.694;2023-04-25T13:15:14;13.80;93.40
46676;DHT22;32412;51.478;5.694;2023-04-25T13:17:41;13.80;93.60
46676;DHT22;32412;51.478;5.694;2023-04-25T13:20:33;13.90;93.70
46676;DHT22;32412;51.478;5.694;2023-04-25T13:23:08;13.90;94.30
46676;DHT22;32412;51.478;5.694;2023-04-25T13:25:34;14.00;95.30
46676;DHT22;32412;51.478;5.694;2023-04-25T13:28:01;13.90;97.20
46676;DHT22;32412;51.478;5.694;2023-04-25T13:30:40;12.50;99.10
46676;DHT22;32412;51.478;5.694;2023-04-25T13:33:06;11.40;99.90
46676;DHT22;32412;51.478;5.694;2023-04-25T13:35:32;10.90;99.90
46676;DHT22;32412;51.478;5.694;2023-04-25T13:37:59;10.70;99.90
46676;DHT22;32412;51.478;5.694;2023-04-25T13:40:25;10.70;99.90
46676;DHT22;32412;51.478;5.694;2023-04-25T13:43:00;11.40;99.90
46676;DHT22;32412;51.478;5.694;2023-04-25T13:45:26;11.70;99.90
46676;DHT22;32412;51.478;5.694;2023-04-25T13:47:54;12.40;99.40
46676;DHT22;32412;51.478;5.694;2023-04-25T13:50:20;12.70;99.20
46676;DHT22;32412;51.478;5.694;2023-04-25T13:52:46;13.10;99.60
46676;DHT22;32412;51.478;5.694;2023-04-25T13:55:12;13.20;97.50
46676;DHT22;32412;51.478;5.694;2023-04-25T13:57:38;13.00;97.60
46676;DHT22;32412;51.478;5.694;2023-04-25T14:00:05;13.20;98.50
46676;DHT22;32412;51.478;5.694;2023-04-25T14:02:39;12.90;96.50
46676;DHT22;32412;51.478;5.694;2023-04-25T14:08:27;13.60;97.60
46676;DHT22;32412;51.478;5.694;2023-04-25T14:10:56;13.50;97.00
46676;DHT22;32412;51.478;5.694;2023-04-25T14:13:21;13.60;97.30
46676;DHT22;32412;51.478;5.694;2023-04-25T14:15:49;13.30;97.00
46676;DHT22;32412;51.478;5.694;2023-04-25T14:18:15;13.90;97.90
46676;DHT22;32412;51.478;5.694;2023-04-25T14:20:45;14.50;97.20
46676;DHT22;32412;51.478;5.694;2023-04-25T14:23:13;14.20;96.70
46676;DHT22;32412;51.478;5.694;2023-04-25T14:25:39;13.50;97.90
46676;DHT22;32412;51.478;5.694;2023-04-25T14:28:10;12.80;99.10
46676;DHT22;32412;51.478;5.694;2023-04-25T14:30:40;11.60;99.90
46676;DHT22;32412;51.478;5.694;2023-04-25T14:33:08;11.20;99.90
46676;DHT22;32412;51.478;5.694;2023-04-25T14:35:35;10.90;99.90
46676;DHT22;32412;51.478;5.694;2023-04-25T14:38:00;10.80;99.90
46676;DHT22;32412;51.478;5.694;2023-04-25T14:40:26;11.40;99.90
46676;DHT22;32412;51.478;5.694;2023-04-25T14:42:52;12.10;99.90
46676;DHT22;32412;51.478;5.694;2023-04-25T14:45:18;12.30;99.90
46676;DHT22;32412;51.478;5.694;2023-04-25T14:47:43;12.30;99.90
46676;DHT22;32412;51.478;5.694;2023-04-25T14:50:10;12.60;99.30
46676;DHT22;32412;51.478;5.694;2023-04-25T14:52:36;12.90;98.70
46676;DHT22;32412;51.478;5.694;2023-04-25T14:55:02;13.00;98.70
46676;DHT22;32412;51.478;5.694;2023-04-25T14:57:33;12.60;99.00
46676;DHT22;32412;51.478;5.694;2023-04-25T15:00:02;12.60;98.80
46676;DHT22;32412;51.478;5.694;2023-04-25T15:02:30;12.10;99.50
46676;DHT22;32412;51.478;5.694;2023-04-25T15:04:56;11.70;99.90
46676;DHT22;32412;51.478;5.694;2023-04-25T15:07:22;11.50;99.90
46676;DHT22;32412;51.478;5.694;2023-04-25T15:09:48;12.00;99.90
46676;DHT22;32412;51.478;5.694;2023-04-25T15:12:14;12.20;99.90
46676;DHT22;32412;51.478;5.694;2023-04-25T15:14:42;12.60;99.90
46676;DHT22;32412;51.478;5.694;2023-04-25T15:17:08;13.00;99.90
46676;DHT22;32412;51.478;5.694;2023-04-25T15:19:34;13.50;99.10
46676;DHT22;32412;51.478;5.694;2023-04-25T15:21:59;13.50;98.90
46676;DHT22;32412;51.478;5.694;2023-04-25T15:24:29;13.30;98.00
46676;DHT22;32412;51.478;5.694;2023-04-25T15:26:55;12.90;99.00
46676;DHT22;32412;51.478;5.694;2023-04-25T15:29:21;12.90;98.20
46676;DHT22;32412;51.478;5.694;2023-04-25T15:31:50;13.40;98.60
46676;DHT22;32412;51.478;5.694;2023-04-25T15:34:17;13.50;97.10
46676;DHT22;32412;51.478;5.694;2023-04-25T15:36:43;13.50;97.60
46676;DHT22;32412;51.478;5.694;2023-04-25T15:39:11;13.40;97.60
46676;DHT22;32412;51.478;5.694;2023-04-25T15:41:39;13.40;99.20
46676;DHT22;32412;51.478;5.694;2023-04-25T15:44:06;14.00;99.10
46676;DHT22;32412;51.478;5.694;2023-04-25T15:46:33;14.60;98.80
46676;DHT22;32412;51.478;5.694;2023-04-25T15:49:06;15.50;98.00
46676;DHT22;32412;51.478;5.694;2023-04-25T15:51:34;16.20;96.70
46676;DHT22;32412;51.478;5.694;2023-04-25T15:54:00;16.30;94.60
46676;DHT22;32412;51.478;5.694;2023-04-25T15:56:29;15.40;93.40
46676;DHT22;32412;51.478;5.694;2023-04-25T15:58:58;14.00;94.30
46676;DHT22;32412;51.478;5.694;2023-04-25T16:01:24;12.90;95.60
46676;DHT22;32412;51.478;5.694;2023-04-25T16:03:53;12.30;96.90
46676;DHT22;32412;51.478;5.694;2023-04-25T16:06:18;11.70;97.40
46676;DHT22;32412;51.478;5.694;2023-04-25T16:08:44;11.40;97.80
46676;DHT22;32412;51.478;5.694;2023-04-25T16:11:12;11.30;98.90
46676;DHT22;32412;51.478;5.694;2023-04-25T16:13:39;11.50;99.10
46676;DHT22;32412;51.478;5.694;2023-04-25T16:16:05;12.20;98.30
46676;DHT22;32412;51.478;5.694;2023-04-25T16:18:54;12.60;97.90
46676;DHT22;32412;51.478;5.694;2023-04-25T16:21:40;12.50;96.70
46676;DHT22;32412;51.478;5.694;2023-04-25T16:28:31;12.20;96.40
46676;DHT22;32412;51.478;5.694;2023-04-25T16:31:00;12.90;94.30
46676;DHT22;32412;51.478;5.694;2023-04-25T16:33:31;13.20;93.90
46676;DHT22;32412;51.478;5.694;2023-04-25T16:36:00;13.30;93.50
46676;DHT22;32412;51.478;5.694;2023-04-25T16:38:29;13.20;93.30
46676;DHT22;32412;51.478;5.694;2023-04-25T16:40:57;13.00;93.70
46676;DHT22;32412;51.478;5.694;2023-04-25T16:43:23;13.10;93.50
46676;DHT22;32412;51.478;5.694;2023-04-25T16:45:49;13.30;94.20
46676;DHT22;32412;51.478;5.694;2023-04-25T16:48:15;13.10;93.90
46676;DHT22;32412;51.478;5.694;2023-04-25T16:50:43;12.80;94.50
46676;DHT22;32412;51.478;5.694;2023-04-25T16:53:09;12.80;95.90
46676;DHT22;32412;51.478;5.694;2023-04-25T16:55:35;12.50;96.80
46676;DHT22;32412;51.478;5.694;2023-04-25T16:58:01;12.30;97.20
46676;DHT22;32412;51.478;5.694;2023-04-25T17:00:26;12.70;97.60
46676;DHT22;32412;51.478;5.694;2023-04-25T17:02:58;12.70;97.30
46676;DHT22;32412;51.478;5.694;2023-04-25T17:05:26;12.70;97.40
46676;DHT22;32412;51.478;5.694;2023-04-25T17:07:54;12.50;97.70
46676;DHT22;32412;51.478;5.694;2023-04-25T17:10:21;12.60;97.30
46676;DHT22;32412;51.478;5.694;2023-04-25T17:12:50;12.50;96.40
46676;DHT22;32412;51.478;5.694;2023-04-25T17:15:21;12.20;97.10
46676;DHT22;32412;51.478;5.694;2023-04-25T17:17:49;11.70;97.00
46676;DHT22;32412;51.478;5.694;2023-04-25T17:20:18;11.10;96.60
46676;DHT22;32412;51.478;5.694;2023-04-25T17:22:47;10.80;97.00
46676;DHT22;32412;51.478;5.694;2023-04-25T17:25:13;10.70;98.10
46676;DHT22;32412;51.478;5.694;2023-04-25T17:27:41;10.50;97.90
46676;DHT22;32412;51.478;5.694;2023-04-25T17:30:07;10.40;99.10
46676;DHT22;32412;51.478;5.694;2023-04-25T17:32:34;10.40;99.90
46676;DHT22;32412;51.478;5.694;2023-04-25T17:34:59;10.30;99.90
46676;DHT22;32412;51.478;5.694;2023-04-25T17:37:38;10.70;99.90
46676;DHT22;32412;51.478;5.694;2023-04-25T17:40:06;10.60;99.60
46676;DHT22;32412;51.478;5.694;2023-04-25T17:42:35;10.30;99.90
46676;DHT22;32412;51.478;5.694;2023-04-25T17:45:04;10.00;99.90
46676;DHT22;32412;51.478;5.694;2023-04-25T17:47:39;9.90;99.90
46676;DHT22;32412;51.478;5.694;2023-04-25T17:50:07;9.80;99.90
46676;DHT22;32412;51.478;5.694;2023-04-25T17:52:33;9.70;99.90
46676;DHT22;32412;51.478;5.694;2023-04-25T17:54:59;9.70;99.90
46676;DHT22;32412;51.478;5.694;2023-04-25T17:57:24;10.00;99.90
46676;DHT22;32412;51.478;5.694;2023-04-25T17:59:58;10.10;99.90
46676;DHT22;32412;51.478;5.694;2023-04-25T18:02:25;10.40;99.90
46676;DHT22;32412;51.478;5.694;2023-04-25T18:04:51;10.50;99.90
46676;DHT22;32412;51.478;5.694;2023-04-25T18:07:16;10.60;99.90
46676;DHT22;32412;51.478;5.694;2023-04-25T18:09:42;11.00;99.90
46676;DHT22;32412;51.478;5.694;2023-04-25T18:12:09;10.60;99.90
46676;DHT22;32412;51.478;5.694;2023-04-25T18:14:35;10.00;99.90
46676;DHT22;32412;51.478;5.694;2023-04-25T18:17:01;9.70;99.90
46676;DHT22;32412;51.478;5.694;2023-04-25T18:19:28;9.50;99.90
46676;DHT22;32412;51.478;5.694;2023-04-25T18:21:54;9.40;99.90
46676;DHT22;32412;51.478;5.694;2023-04-25T18:24:24;9.30;99.90
46676;DHT22;32412;51.478;5.694;2023-04-25T18:26:53;9.00;99.90
46676;DHT22;32412;51.478;5.694;2023-04-25T18:29:20;8.90;99.90
46676;DHT22;32412;51.478;5.694;2023-04-25T18:31:46;8.80;99.90
46676;DHT22;32412;51.478;5.694;2023-04-25T18:34:12;8.70;99.90
46676;DHT22;32412;51.478;5.694;2023-04-25T18:36:39;8.50;99.90
46676;DHT22;32412;51.478;5.694;2023-04-25T18:39:05;8.50;99.90
46676;DHT22;32412;51.478;5.694;2023-04-25T18:41:35;8.40;99.90
46676;DHT22;32412;51.478;5.694;2023-04-25T18:44:04;8.30;99.90
46676;DHT22;32412;51.478;5.694;2023-04-25T18:46:33;8.20;99.90
46676;DHT22;32412;51.478;5.694;2023-04-25T18:49:00;8.20;99.90
46676;DHT22;32412;51.478;5.694;2023-04-25T18:51:27;8.10;99.90
46676;DHT22;32412;51.478;5.694;2023-04-25T18:53:59;8.00;99.90
46676;DHT22;32412;51.478;5.694;2023-04-25T18:56:26;8.00;99.90
46676;DHT22;32412;51.478;5.694;2023-04-25T18:58:54;7.90;99.90
46676;DHT22;32412;51.478;5.694;2023-04-25T19:01:21;7.80;99.90
46676;DHT22;32412;51.478;5.694;2023-04-25T19:03:48;7.80;99.90
46676;DHT22;32412;51.478;5.694;2023-04-25T19:06:25;7.70;99.90
46676;DHT22;32412;51.478;5.694;2023-04-25T19:08:52;7.60;99.90
46676;DHT22;32412;51.478;5.694;2023-04-25T19:11:19;7.60;99.90
46676;DHT22;32412;51.478;5.694;2023-04-25T19:13:46;7.50;99.90
46676;DHT22;32412;51.478;5.694;2023-04-25T19:16:12;7.50;99.90
46676;DHT22;32412;51.478;5.694;2023-04-25T19:18:37;7.40;99.90
46676;DHT22;32412;51.478;5.694;2023-04-25T19:21:04;7.40;99.90
46676;DHT22;32412;51.478;5.694;2023-04-25T19:23:33;7.30;99.90
46676;DHT22;32412;51.478;5.694;2023-04-25T19:25:59;7.20;99.90
46676;DHT22;32412;51.478;5.694;2023-04-25T19:28:25;7.20;99.90
46676;DHT22;32412;51.478;5.694;2023-04-25T19:30:53;7.10;99.90
46676;DHT22;32412;51.478;5.694;2023-04-25T19:33:19;7.10;99.90
46676;DHT22;32412;51.478;5.694;2023-04-25T19:35:45;7.00;99.90
46676;DHT22;32412;51.478;5.694;2023-04-25T19:38:11;7.00;99.90
46676;DHT22;32412;51.478;5.694;2023-04-25T19:40:37;7.00;99.90
46676;DHT22;32412;51.478;5.694;2023-04-25T19:43:03;6.90;99.90
46676;DHT22;32412;51.478;5.694;2023-04-25T19:45:35;6.90;99.90
46676;DHT22;32412;51.478;5.694;2023-04-25T19:48:01;6.80;99.90
46676;DHT22;32412;51.478;5.694;2023-04-25T19:50:29;6.80;99.90
46676;DHT22;32412;51.478;5.694;2023-04-25T19:52:55;6.70;99.90
46676;DHT22;32412;51.478;5.694;2023-04-25T19:55:21;6.70;99.90
46676;DHT22;32412;51.478;5.694;2023-04-25T19:57:47;6.60;99.90
46676;DHT22;32412;51.478;5.694;2023-04-25T20:00:15;6.60;99.90
46676;DHT22;32412;51.478;5.694;2023-04-25T20:02:42;6.60;99.90
46676;DHT22;32412;51.478;5.694;2023-04-25T20:05:11;6.50;99.90
46676;DHT22;32412;51.478;5.694;2023-04-25T20:07:37;6.50;99.90
46676;DHT22;32412;51.478;5.694;2023-04-25T20:10:07;6.50;99.90
46676;DHT22;32412;51.478;5.694;2023-04-25T20:12:34;6.50;99.90
46676;DHT22;32412;51.478;5.694;2023-04-25T20:15:05;6.50;99.90